Time;durP1;ratioP1;P1;durP2;ratioP2;P2;SDS_P1;SDS_P2;PMS_P1;PMS_P2;Temp;Humidity;BMP_temperature;BMP_pressure;BME280_temperature;BME280_humidity;BME280_pressure;Samples;Min_cycle;Max_cycle;Signal;HPM_P1;HPM_P2
2021/10/18 05:09:42;;;;;;;12.05;5.13;;;;;;;7.08;75.40;98151.25;5411526;24;20355;-60
2021/10/18 05:12:08;;;;;;;10.50;4.85;;;;;;;7.15;75.90;98146.59;4787193;29;20170;-61
2021/10/18 05:14:34;;;;;;;11.02;4.95;;;;;;;7.18;75.60;98148.75;4821184;29;20522;-61
2021/10/18 05:17:00;;;;;;;7.97;5.13;;;;;;;7.19;75.67;98147.69;4806461;29;20046;-61
2021/10/18 05:19:26;;;;;;;11.98;5.85;;;;;;;7.23;75.42;98146.94;4822856;29;20077;-60
2021/10/18 05:21:52;;;;;;;9.63;5.50;;;;;;;7.20;74.97;98151.91;4820575;29;20512;-65
2021/10/18 05:24:17;;;;;;;5.85;4.68;;;;;;;7.28;75.88;98154.13;4821272;29;20062;-60
2021/10/18 05:26:43;;;;;;;9.45;5.03;;;;;;;7.35;75.21;98151.28;4820181;29;20465;-61
2021/10/18 05:29:09;;;;;;;8.98;4.57;;;;;;;7.27;75.12;98150.69;4819271;29;20066;-62
2021/10/18 05:31:35;;;;;;;7.07;4.72;;;;;;;7.32;75.09;98147.31;4818508;29;20130;-61
2021/10/18 05:34:01;;;;;;;8.85;5.30;;;;;;;7.31;75.44;98151.00;4821082;29;20531;-61
2021/10/18 05:36:26;;;;;;;7.72;4.65;;;;;;;7.34;74.68;98147.88;4820202;29;20042;-63
2021/10/18 05:38:52;;;;;;;6.97;4.80;;;;;;;7.31;75.42;98155.47;4801962;29;20453;-60
2021/10/18 05:41:18;;;;;;;7.22;4.65;;;;;;;7.21;75.74;98161.44;4802288;29;20046;-63
2021/10/18 05:43:44;;;;;;;6.47;3.50;;;;;;;7.06;74.29;98180.50;4819094;29;20089;-61
2021/10/18 05:46:10;;;;;;;4.00;2.25;;;;;;;6.87;72.46;98179.16;4818932;29;20046;-62
2021/10/18 05:48:36;;;;;;;3.78;2.30;;;;;;;6.75;73.34;98179.25;4818310;29;20077;-61
2021/10/18 05:51:02;;;;;;;3.45;2.50;;;;;;;6.63;73.23;98181.19;4819745;29;20561;-61
2021/10/18 05:53:28;;;;;;;3.75;2.10;;;;;;;6.53;73.86;98179.19;4820002;29;20541;-62
2021/10/18 05:55:54;;;;;;;3.55;2.58;;;;;;;6.47;75.28;98183.59;4820127;29;20145;-62
2021/10/18 05:58:20;;;;;;;7.10;3.50;;;;;;;6.49;74.97;98191.25;4821022;29;20057;-62
2021/10/18 06:00:46;;;;;;;5.18;3.03;;;;;;;6.41;74.21;98186.38;4806630;29;20050;-61
2021/10/18 06:03:14;;;;;;;5.95;3.22;;;;;;;6.31;74.94;98190.44;4822640;29;20046;-62
2021/10/18 06:05:45;;;;;;;4.82;2.70;;;;;;;6.24;74.62;98192.44;4823159;29;20047;-61
2021/10/18 06:08:13;;;;;;;4.97;2.72;;;;;;;6.28;75.20;98200.66;4822155;29;20058;-60
2021/10/18 06:10:40;;;;;;;3.10;2.47;;;;;;;6.12;75.27;98205.66;4805334;29;20070;-61
2021/10/18 06:13:07;;;;;;;6.72;2.70;;;;;;;6.13;75.20;98207.25;4821306;29;20087;-61
2021/10/18 06:15:33;;;;;;;5.22;2.38;;;;;;;6.15;75.04;98220.19;4822816;29;20062;-61
2021/10/18 06:18:16;;;;;;;3.53;2.28;;;;;;;6.23;74.58;98211.09;4812819;29;20045;-63
2021/10/18 06:20:43;;;;;;;6.72;2.25;;;;;;;6.11;74.80;98219.03;4811190;29;20083;-61
2021/10/18 06:23:09;;;;;;;2.65;2.08;;;;;;;6.03;74.61;98216.78;4795367;29;20065;-61
2021/10/18 06:25:35;;;;;;;4.57;2.33;;;;;;;6.01;74.25;98240.72;4807058;29;20608;-60
2021/10/18 06:28:02;;;;;;;4.75;2.28;;;;;;;5.97;74.88;98236.97;4788570;29;20043;-59
2021/10/18 06:30:28;;;;;;;4.03;2.33;;;;;;;6.13;74.50;98236.19;4791478;29;20127;-61
2021/10/18 06:32:54;;;;;;;6.43;2.25;;;;;;;6.09;73.80;98232.47;4801528;29;20639;-59
2021/10/18 06:35:21;;;;;;;3.60;1.65;;;;;;;6.15;73.53;98230.72;4783277;29;20058;-62
2021/10/18 06:37:47;;;;;;;6.15;2.13;;;;;;;6.12;72.95;98231.97;4784510;29;20137;-60
2021/10/18 06:40:13;;;;;;;2.53;1.38;;;;;;;6.04;72.76;98227.09;4785826;29;20047;-60
2021/10/18 06:42:39;;;;;;;0.90;0.90;;;;;;;6.01;73.58;98232.03;4786664;29;20055;-60
2021/10/18 06:45:09;;;;;;;1.92;1.10;;;;;;;5.94;73.90;98241.88;4801986;29;20131;-60
2021/10/18 06:47:35;;;;;;;5.15;1.30;;;;;;;5.96;74.70;98239.81;4786463;29;20193;-61
2021/10/18 06:50:01;;;;;;;1.17;1.10;;;;;;;5.73;74.46;98253.81;4801238;29;20055;-60
2021/10/18 06:52:32;;;;;;;2.60;1.20;;;;;;;5.70;75.03;98262.97;4802786;29;20055;-58
2021/10/18 06:54:59;;;;;;;1.73;1.50;;;;;;;5.59;74.06;98266.44;4803139;29;20051;-59
2021/10/18 06:57:25;;;;;;;2.20;1.75;;;;;;;5.59;74.33;98266.44;4803159;29;20505;-61
2021/10/18 06:59:51;;;;;;;2.40;1.48;;;;;;;5.46;72.87;98264.84;4803554;29;20055;-60
2021/10/18 07:02:17;;;;;;;1.33;1.08;;;;;;;5.45;73.19;98271.16;4803447;29;20398;-61
2021/10/18 07:04:42;;;;;;;3.58;1.10;;;;;;;5.50;72.38;98281.78;4802904;29;20050;-61
2021/10/18 07:07:08;;;;;;;0.82;0.82;;;;;;;5.55;72.43;98291.59;4802984;29;20150;-60
2021/10/18 07:09:35;;;;;;;1.45;1.35;;;;;;;5.64;73.06;98295.47;4802258;29;20059;-60
2021/10/18 07:12:00;;;;;;;1.00;1.00;;;;;;;5.64;72.51;98298.88;4802987;29;20059;-61
2021/10/18 07:14:26;;;;;;;1.65;1.50;;;;;;;5.68;72.90;98302.66;4786969;29;20051;-60
2021/10/18 07:16:52;;;;;;;1.30;1.20;;;;;;;5.59;71.86;98296.16;4803441;29;20051;-61
2021/10/18 07:19:27;;;;;;;1.10;0.90;;;;;;;5.44;72.60;98294.03;4803127;29;20054;-59
2021/10/18 07:21:53;;;;;;;1.35;1.20;;;;;;;5.39;73.37;98282.59;4789242;29;20111;-60
2021/10/18 07:24:19;;;;;;;4.28;1.20;;;;;;;5.39;74.13;98286.00;4787770;29;20050;-60
2021/10/18 07:26:49;;;;;;;2.90;2.40;;;;;;;5.39;74.16;98298.38;4805779;29;20076;-61
2021/10/18 07:29:15;;;;;;;;;;;;;;;5.36;74.16;98299.63;4789637;29;20134;-60
2021/10/18 07:31:41;;;;;;;5.57;2.30;;;;;;;5.31;73.73;98293.44;4806061;29;19964;-60
2021/10/18 07:34:13;;;;;;;2.55;1.98;;;;;;;5.10;75.05;98287.75;4805387;29;20142;-59
2021/10/18 07:36:47;;;;;;;1.55;1.30;;;;;;;5.00;75.39;98301.47;4806137;29;20042;-60
2021/10/18 07:39:15;;;;;;;1.50;1.40;;;;;;;5.00;77.20;98304.09;4788017;29;20051;-61
2021/10/18 07:41:41;;;;;;;1.27;1.00;;;;;;;5.00;75.32;98316.41;4805613;29;20046;-60
2021/10/18 07:44:07;;;;;;;1.20;1.10;;;;;;;5.07;75.87;98305.78;4806292;29;20425;-60
2021/10/18 07:46:33;;;;;;;1.20;1.10;;;;;;;5.21;76.66;98304.53;4806108;29;20078;-62
2021/10/18 07:49:00;;;;;;;1.10;1.00;;;;;;;5.31;73.65;98303.97;4782850;29;20212;-59
2021/10/18 07:51:27;;;;;;;1.20;1.10;;;;;;;5.43;74.18;98313.44;4814654;29;20061;-62
2021/10/18 07:53:53;;;;;;;1.40;1.30;;;;;;;5.46;72.42;98310.34;4816836;29;20038;-60
2021/10/18 07:56:19;;;;;;;1.60;1.08;;;;;;;5.46;72.25;98299.03;4807441;29;20050;-63
2021/10/18 07:58:44;;;;;;;1.45;1.20;;;;;;;5.55;73.96;98295.00;4823814;29;20050;-60
2021/10/18 08:01:10;;;;;;;1.30;1.20;;;;;;;5.66;71.41;98286.31;4820751;29;20358;-59
2021/10/18 08:03:36;;;;;;;2.17;1.23;;;;;;;5.74;72.64;98281.72;4822274;29;20094;-62
2021/10/18 08:06:02;;;;;;;2.38;1.48;;;;;;;5.90;69.62;98291.50;4776887;29;20478;-62
2021/10/18 08:08:30;;;;;;;2.78;1.38;;;;;;;5.92;69.50;98289.44;4821742;29;20142;-61
2021/10/18 08:10:57;;;;;;;3.35;1.73;;;;;;;6.07;69.11;98295.03;4822194;29;20148;-61
2021/10/18 08:13:23;;;;;;;2.22;1.60;;;;;;;5.95;68.56;98301.38;4822449;29;20042;-61
2021/10/18 08:15:49;;;;;;;1.65;1.42;;;;;;;5.89;68.72;98295.19;4821066;29;20061;-61
2021/10/18 08:18:15;;;;;;;3.55;1.40;;;;;;;5.88;68.85;98301.44;4822731;29;20057;-63
2021/10/18 08:20:41;;;;;;;2.63;1.08;;;;;;;6.00;69.69;98304.06;4805709;29;20050;-60
2021/10/18 08:23:07;;;;;;;1.35;1.02;;;;;;;6.11;69.87;98305.88;4823720;29;20047;-61
2021/10/18 08:25:33;;;;;;;3.05;1.60;;;;;;;6.12;69.21;98302.22;4824102;29;20085;-63
2021/10/18 08:27:58;;;;;;;1.10;1.00;;;;;;;6.21;69.00;98300.81;4821226;29;20078;-62
2021/10/18 08:30:24;;;;;;;2.03;1.42;;;;;;;6.27;66.90;98302.50;4807297;29;20054;-60
2021/10/18 08:32:50;;;;;;;2.65;2.10;;;;;;;6.29;66.83;98310.94;4790051;29;20085;-63
2021/10/18 08:35:16;;;;;;;2.13;1.70;;;;;;;6.40;68.55;98308.50;4822774;29;20054;-61
2021/10/18 08:46:21;;;;;;;2.05;1.60;;;;;;;6.69;64.34;98314.53;4821470;29;20380;-61
2021/10/18 08:48:51;;;;;;;2.05;1.45;;;;;;;6.80;64.73;98316.31;4822694;29;20114;-61
2021/10/18 08:51:17;;;;;;;3.25;1.60;;;;;;;6.81;64.19;98317.91;4804988;29;20513;-60
2021/10/18 08:53:44;;;;;;;1.40;1.30;;;;;;;6.78;63.66;98318.38;4804821;29;20065;-61
2021/10/18 08:56:10;;;;;;;4.65;2.00;;;;;;;6.67;63.68;98321.88;4789923;29;20042;-62
2021/10/18 08:58:36;;;;;;;2.42;1.50;;;;;;;6.60;65.47;98322.81;4806069;29;20508;-61
2021/10/18 09:01:02;;;;;;;3.65;2.35;;;;;;;6.57;65.66;98325.94;4803645;29;20103;-61
2021/10/18 09:03:33;;;;;;;2.65;1.73;;;;;;;6.61;66.67;98328.88;4793807;29;20046;-61
2021/10/18 09:06:18;;;;;;;5.18;2.60;;;;;;;6.39;66.66;98336.66;4772320;29;20061;-62
2021/10/18 09:08:49;;;;;;;3.28;1.92;;;;;;;6.31;66.68;98329.16;4813101;29;20042;-61
2021/10/18 09:11:20;;;;;;;2.53;2.03;;;;;;;6.23;66.55;98337.41;4812477;29;20070;-61
2021/10/18 09:13:51;;;;;;;;;;;;;;;6.17;66.62;98330.44;4803938;29;20417;-61
2021/10/18 09:16:33;;;;;;;2.75;1.70;;;;;;;6.18;66.99;98334.66;4802686;29;20070;-59
2021/10/18 09:19:11;;;;;;;3.17;1.50;;;;;;;6.09;65.80;98340.31;4787975;29;20103;-61
2021/10/18 09:21:42;;;;;;;4.22;2.10;;;;;;;6.21;66.93;98331.59;4799080;29;20142;-62
2021/10/18 09:24:12;;;;;;;1.98;1.58;;;;;;;6.37;67.08;98336.88;4771655;29;20548;-62
2021/10/18 09:26:40;;;;;;;2.30;1.30;;;;;;;6.63;65.96;98332.09;4802117;29;20191;-61
2021/10/18 09:29:14;;;;;;;2.50;1.20;;;;;;;6.66;64.70;98336.88;4801043;29;20051;-60
2021/10/18 09:31:42;;;;;;;2.47;1.20;;;;;;;6.60;64.97;98333.34;4785414;29;20055;-61
2021/10/18 09:34:18;;;;;;;1.90;1.30;;;;;;;6.79;65.23;98327.84;4802343;29;20058;-61
2021/10/18 09:36:45;;;;;;;2.22;1.25;;;;;;;6.97;64.23;98330.28;4786238;29;20053;-61
2021/10/18 09:39:21;;;;;;;1.40;1.30;;;;;;;7.08;63.74;98328.59;4786879;29;20055;-61
2021/10/18 09:42:01;;;;;;;1.08;1.00;;;;;;;7.16;63.47;98330.03;4786729;29;20082;-62
2021/10/18 09:45:22;;;;;;;1.50;1.40;;;;;;;6.98;64.35;98320.53;4769999;29;20059;-60
2021/10/18 10:53:12;;;;;;;1.05;0.95;;;;;;;7.71;53.11;98324.75;4821527;29;20058;-60
2021/10/18 10:55:38;;;;;;;2.75;1.23;;;;;;;7.73;52.45;98320.03;4821564;29;20077;-60
2021/10/18 10:58:35;;;;;;;5.25;1.52;;;;;;;7.62;52.73;98320.13;4822888;29;20508;-60
2021/10/18 11:01:03;;;;;;;3.38;1.40;;;;;;;7.53;52.64;98319.75;4807613;29;20442;-63
2021/10/18 11:03:39;;;;;;;1.95;1.35;;;;;;;7.54;54.51;98323.19;4823735;29;20054;-60
2021/10/18 11:06:08;;;;;;;2.85;1.63;;;;;;;7.62;54.69;98330.69;4823932;29;20144;-60
2021/10/18 11:08:38;;;;;;;1.83;1.38;;;;;;;7.65;53.77;98327.56;4808160;29;20050;-59
2021/10/18 11:11:18;;;;;;;2.58;1.25;;;;;;;7.71;54.26;98322.09;4824194;29;20062;-60
2021/10/18 11:13:56;;;;;;;5.03;1.42;;;;;;;7.69;53.97;98323.38;4806868;29;20077;-58
2021/10/18 11:16:24;;;;;;;1.92;1.20;;;;;;;7.54;53.44;98321.34;4823007;29;20046;-60
2021/10/18 11:18:55;;;;;;;4.40;1.30;;;;;;;7.55;53.43;98319.50;4792026;29;20049;-60
2021/10/18 11:21:24;;;;;;;4.55;1.05;;;;;;;7.49;52.86;98318.63;4806527;29;20102;-59
2021/10/18 11:24:00;;;;;;;3.50;1.10;;;;;;;7.59;51.95;98323.25;4808075;29;20050;-59
2021/10/18 11:26:29;;;;;;;0.90;0.90;;;;;;;7.61;52.43;98310.63;4805931;29;20054;-60
2021/10/18 11:28:59;;;;;;;2.95;1.13;;;;;;;7.68;51.54;98311.25;4817636;29;20047;-60
2021/10/18 11:31:36;;;;;;;2.58;1.20;;;;;;;7.51;52.10;98319.19;4783065;29;20053;-61
2021/10/18 11:34:08;;;;;;;2.90;1.30;;;;;;;7.51;51.81;98317.34;4797279;29;20054;-60
2021/10/18 11:36:36;;;;;;;1.58;1.13;;;;;;;7.44;52.41;98321.19;4812563;29;20178;-61
2021/10/18 11:39:24;;;;;;;2.67;1.33;;;;;;;7.52;53.38;98328.69;4788026;29;20529;-62
2021/10/18 11:41:59;;;;;;;2.55;1.40;;;;;;;7.58;53.76;98322.44;4814477;29;20502;-61
2021/10/18 11:44:54;;;;;;;4.47;1.30;;;;;;;7.69;54.04;98324.19;4813353;29;20058;-62
2021/10/18 11:47:30;;;;;;;2.63;1.50;;;;;;;7.72;54.36;98321.06;4798082;29;20534;-62
2021/10/18 11:50:12;;;;;;;2.33;1.50;;;;;;;7.64;54.51;98320.69;4768250;29;20058;-61
2021/10/18 11:52:41;;;;;;;2.55;1.60;;;;;;;7.56;53.62;98315.81;4821669;29;20538;-61
2021/10/18 11:55:09;;;;;;;2.00;1.50;;;;;;;7.43;53.67;98325.66;4806926;29;20058;-61
2021/10/18 11:57:39;;;;;;;5.55;1.80;;;;;;;7.37;54.19;98317.94;4804396;29;20417;-63
2021/10/18 12:00:40;;;;;;;3.78;1.50;;;;;;;7.24;53.61;98324.38;4805822;29;20532;-61
2021/10/18 12:03:12;;;;;;;3.38;1.73;;;;;;;7.15;54.15;98312.63;4822852;29;20050;-62
2021/10/18 12:05:44;;;;;;;2.75;1.90;;;;;;;7.08;54.08;98320.69;4821475;29;20054;-61
2021/10/18 12:08:16;;;;;;;3.83;1.67;;;;;;;7.06;53.93;98320.16;4822120;29;20046;-62
2021/10/18 12:10:50;;;;;;;3.90;1.80;;;;;;;7.05;54.30;98319.31;4749018;29;20058;-61
2021/10/18 12:13:29;;;;;;;4.03;1.50;;;;;;;7.05;54.27;98315.91;4822545;29;20050;-62
2021/10/18 12:16:20;;;;;;;2.47;1.65;;;;;;;7.07;53.65;98316.47;4821722;29;20453;-60
2021/10/18 12:18:58;;;;;;;1.45;1.20;;;;;;;7.10;53.32;98313.34;4806971;29;20046;-62
2021/10/18 12:21:26;;;;;;;1.38;1.20;;;;;;;7.12;53.06;98318.34;4822506;29;20133;-62
2021/10/18 12:23:54;;;;;;;1.75;1.27;;;;;;;7.05;53.01;98321.97;4805550;29;20065;-62
2021/10/18 12:26:27;;;;;;;1.50;1.40;;;;;;;7.05;52.60;98315.91;4775474;29;20157;-66
2021/10/18 12:29:00;;;;;;;4.15;1.38;;;;;;;7.13;52.95;98322.59;4813180;29;20073;-62
2021/10/18 12:31:33;;;;;;;2.08;1.40;;;;;;;7.20;52.65;98317.97;4797847;29;20046;-62
2021/10/18 12:34:22;;;;;;;2.10;1.48;;;;;;;7.34;52.31;98324.50;4792108;29;20460;-63
2021/10/18 12:37:05;;;;;;;3.72;1.60;;;;;;;7.54;52.06;98318.72;4803867;29;20474;-62
2021/10/18 12:39:57;;;;;;;2.08;1.52;;;;;;;7.62;51.66;98306.94;4819651;29;20053;-63
2021/10/18 12:42:22;;;;;;;3.58;1.45;;;;;;;7.47;52.06;98313.63;4785649;29;20070;-61
2021/10/18 12:45:08;;;;;;;3.47;1.60;;;;;;;7.37;52.62;98300.28;4787580;29;20196;-63
2021/10/18 12:47:38;;;;;;;1.13;1.02;;;;;;;7.21;52.40;98309.81;4787273;29;20049;-62
2021/10/18 12:50:24;;;;;;;1.70;1.17;;;;;;;7.09;53.09;98301.22;4801706;29;20152;-62
2021/10/18 12:52:55;;;;;;;1.30;1.20;;;;;;;7.16;52.70;98303.69;4771469;29;20106;-61
2021/10/18 12:55:26;;;;;;;3.67;1.10;;;;;;;7.16;52.83;98304.47;4804469;29;20062;-61
2021/10/18 12:58:00;;;;;;;1.38;1.23;;;;;;;7.15;52.74;98294.19;4787670;29;20070;-62
2021/10/18 13:00:31;;;;;;;2.33;1.15;;;;;;;7.19;52.96;98293.44;4787025;29;20122;-61
2021/10/18 13:03:06;;;;;;;3.33;1.20;;;;;;;7.14;52.88;98287.31;4784883;29;20046;-62
2021/10/18 13:05:47;;;;;;;2.88;1.40;;;;;;;7.01;52.99;98297.13;4803461;29;20062;-62
2021/10/18 13:08:23;;;;;;;1.63;1.20;;;;;;;6.85;53.41;98282.13;4788494;29;20043;-60
2021/10/18 13:10:51;;;;;;;4.72;1.50;;;;;;;6.88;53.56;98291.38;4770982;29;20062;-61
2021/10/18 13:13:18;;;;;;;3.22;1.40;;;;;;;6.87;53.58;98285.31;4771527;29;20394;-61
2021/10/18 13:15:46;;;;;;;4.07;1.73;;;;;;;7.00;53.75;98300.81;4803972;29;20046;-61
2021/10/18 13:18:13;;;;;;;1.73;1.33;;;;;;;7.19;53.31;98296.09;4835323;29;20050;-60
2021/10/18 13:20:40;;;;;;;3.35;1.80;;;;;;;7.35;52.70;98310.25;4821967;29;20081;-62
2021/10/18 13:23:07;;;;;;;2.78;1.27;;;;;;;7.41;53.23;98309.31;4839187;29;20438;-61
2021/10/18 13:25:38;;;;;;;2.17;1.13;;;;;;;7.48;53.21;98309.94;4807334;29;20074;-60
2021/10/18 13:28:05;;;;;;;2.00;1.38;;;;;;;7.56;53.21;98321.09;4823124;29;20037;-61
2021/10/18 13:30:32;;;;;;;3.08;1.35;;;;;;;7.65;53.10;98323.09;4787033;29;20050;-61
2021/10/18 13:32:59;;;;;;;2.90;1.60;;;;;;;7.58;54.30;98313.75;4784687;29;20065;-61
2021/10/18 13:35:25;;;;;;;3.13;1.83;;;;;;;7.56;55.13;98327.19;4816932;29;20076;-61
2021/10/18 13:37:51;;;;;;;2.38;1.30;;;;;;;7.50;56.05;98321.03;4802658;29;20076;-62
2021/10/18 13:40:19;;;;;;;2.25;1.30;;;;;;;7.46;55.98;98333.09;4819707;29;20511;-61
2021/10/18 13:42:46;;;;;;;3.17;1.40;;;;;;;7.46;56.47;98337.56;4816173;29;20544;-62
2021/10/18 13:45:15;;;;;;;2.15;1.50;;;;;;;7.47;57.19;98344.44;4801520;29;20055;-63
2021/10/18 13:47:41;;;;;;;3.75;1.40;;;;;;;7.42;57.29;98342.53;4783111;29;20517;-63
2021/10/18 13:50:07;;;;;;;2.47;1.38;;;;;;;7.36;57.66;98338.25;4802001;29;20090;-63
2021/10/18 13:52:33;;;;;;;4.03;1.48;;;;;;;7.36;58.03;98355.91;4800215;29;20205;-65
2021/10/18 13:55:00;;;;;;;2.90;1.42;;;;;;;7.16;58.34;98394.06;4783205;29;20538;-61
2021/10/18 13:57:29;;;;;;;2.20;1.13;;;;;;;6.41;63.00;98413.56;4800589;29;20051;-64
2021/10/18 13:59:56;;;;;;;1.10;1.00;;;;;;;5.68;65.55;98409.66;4784345;29;20654;-63
2021/10/18 14:02:21;;;;;;;1.13;0.95;;;;;;;5.24;67.99;98399.47;4800448;29;20047;-63
2021/10/18 14:04:48;;;;;;;1.00;0.90;;;;;;;5.01;68.49;98387.09;4783402;29;20073;-62
2021/10/18 14:07:15;;;;;;;3.67;1.90;;;;;;;5.05;68.72;98389.25;4786283;29;20035;-63
2021/10/18 14:09:42;;;;;;;3.40;1.60;;;;;;;5.07;68.85;98388.00;4806162;29;20067;-62
2021/10/18 14:12:09;;;;;;;2.13;1.17;;;;;;;5.08;67.82;98386.19;4778505;29;20058;-61
2021/10/18 14:14:36;;;;;;;3.75;1.92;;;;;;;5.09;68.97;98390.41;4791225;29;20412;-63
2021/10/18 14:17:02;;;;;;;3.53;2.35;;;;;;;5.11;68.71;98388.34;4785444;29;20054;-62
2021/10/18 14:19:28;;;;;;;4.80;2.00;;;;;;;5.09;68.85;98387.78;4799780;29;20107;-62
2021/10/18 14:21:54;;;;;;;1.60;1.50;;;;;;;5.02;69.42;98387.88;4768428;29;20565;-62
2021/10/18 14:24:19;;;;;;;2.40;1.73;;;;;;;5.05;69.51;98378.75;4800565;29;20050;-62
2021/10/18 14:26:45;;;;;;;1.70;1.42;;;;;;;5.03;70.39;98386.06;4768421;29;20058;-63
2021/10/18 14:29:12;;;;;;;4.45;1.52;;;;;;;5.14;70.07;98393.16;4783371;29;20059;-63
2021/10/18 14:31:37;;;;;;;3.53;1.70;;;;;;;5.28;69.87;98391.13;4816765;29;20603;-62
2021/10/18 14:34:04;;;;;;;4.72;1.65;;;;;;;5.30;69.95;98396.97;4817297;29;20110;-62
2021/10/18 14:36:31;;;;;;;2.90;1.50;;;;;;;5.25;69.64;98395.00;4803160;29;20564;-62
2021/10/18 14:38:58;;;;;;;2.72;1.58;;;;;;;5.12;70.31;98393.41;4801760;29;20517;-60
2021/10/18 14:41:27;;;;;;;3.15;2.00;;;;;;;5.11;71.79;98391.00;4801889;29;20052;-64
2021/10/18 14:43:56;;;;;;;2.95;1.90;;;;;;;5.09;70.96;98385.97;4800894;29;20094;-62
2021/10/18 14:46:24;;;;;;;2.50;1.92;;;;;;;5.11;70.83;98386.53;4801295;29;20579;-62
2021/10/18 14:48:51;;;;;;;2.22;1.67;;;;;;;5.10;71.05;98392.03;4800479;29;20161;-62
2021/10/18 14:51:18;;;;;;;2.03;1.52;;;;;;;5.05;71.26;98397.16;4778194;29;20551;-62
2021/10/18 14:53:44;;;;;;;2.00;1.65;;;;;;;4.99;71.73;98396.22;4817419;29;20099;-61
2021/10/18 14:56:10;;;;;;;2.03;1.60;;;;;;;4.92;72.45;98401.56;4801012;29;20046;-60
2021/10/18 14:58:37;;;;;;;2.65;1.35;;;;;;;4.88;72.17;98400.44;4786270;29;20042;-62
2021/10/18 15:01:03;;;;;;;1.77;1.30;;;;;;;4.88;73.17;98399.63;4787209;29;20145;-63
2021/10/18 15:03:31;;;;;;;3.65;1.50;;;;;;;4.85;72.77;98403.47;4784928;29;20137;-63
2021/10/18 15:05:57;;;;;;;2.17;1.63;;;;;;;4.97;72.69;98406.13;4801489;29;20151;-62
2021/10/18 15:08:23;;;;;;;2.92;1.60;;;;;;;5.07;72.06;98409.03;4788051;29;20077;-61
2021/10/18 15:10:49;;;;;;;2.33;1.42;;;;;;;5.10;71.76;98397.28;4805290;29;20098;-64
2021/10/18 15:13:15;;;;;;;5.70;1.92;;;;;;;5.11;72.12;98412.00;4805233;29;20107;-63
2021/10/18 15:15:40;;;;;;;2.47;1.90;;;;;;;5.09;71.98;98414.88;4787611;29;20046;-63
2021/10/18 15:18:06;;;;;;;2.30;1.77;;;;;;;5.07;72.17;98422.16;4795477;29;20065;-63
2021/10/18 15:20:33;;;;;;;1.92;1.70;;;;;;;5.07;72.51;98427.41;4821130;29;20057;-63
2021/10/18 15:22:59;;;;;;;3.40;1.95;;;;;;;5.01;72.18;98415.19;4797413;29;20129;-63
2021/10/18 15:25:25;;;;;;;3.38;2.03;;;;;;;4.93;71.61;98420.75;4801986;29;20046;-64
2021/10/18 15:27:51;;;;;;;2.85;1.90;;;;;;;4.88;72.35;98413.56;4818503;29;20523;-65
2021/10/18 15:30:18;;;;;;;2.88;1.50;;;;;;;4.80;72.55;98424.38;4788535;29;20576;-64
2021/10/18 15:32:43;;;;;;;3.05;1.48;;;;;;;4.71;72.98;98418.63;4803735;29;20046;-64
2021/10/18 15:35:10;;;;;;;1.60;1.50;;;;;;;4.65;73.33;98427.41;4820589;29;20540;-65
2021/10/18 15:37:37;;;;;;;2.60;1.60;;;;;;;4.54;72.89;98425.53;4800702;29;20464;-64
2021/10/18 15:40:06;;;;;;;2.20;1.60;;;;;;;4.61;73.61;98435.94;4800497;29;20061;-62
2021/10/18 15:42:32;;;;;;;6.38;3.03;;;;;;;4.65;72.96;98432.66;4756571;29;20051;-64
2021/10/18 15:44:59;;;;;;;3.30;1.90;;;;;;;4.66;72.76;98429.00;4804486;29;20505;-62
2021/10/18 15:47:25;;;;;;;1.80;1.55;;;;;;;4.65;72.78;98431.84;4772827;29;20050;-61
2021/10/18 15:49:52;;;;;;;3.33;1.70;;;;;;;4.58;73.07;98425.88;4803728;29;20054;-62
2021/10/18 15:52:19;;;;;;;3.75;1.65;;;;;;;4.48;72.68;98434.28;4759312;29;20039;-62
2021/10/18 15:54:44;;;;;;;2.13;1.50;;;;;;;4.44;73.43;98440.97;4807670;29;20050;-63
2021/10/18 15:57:10;;;;;;;1.95;1.40;;;;;;;4.36;73.80;98452.59;4803636;29;20050;-64
2021/10/18 15:59:37;;;;;;;2.55;1.67;;;;;;;4.35;73.29;98444.94;4802998;29;20058;-63
2021/10/18 16:02:03;;;;;;;1.67;1.30;;;;;;;4.34;73.80;98454.63;4772477;29;20042;-63
2021/10/18 16:04:30;;;;;;;2.75;1.42;;;;;;;4.39;73.17;98452.16;4773141;29;20057;-63
2021/10/18 16:06:56;;;;;;;3.35;1.90;;;;;;;4.50;73.13;98459.28;4787085;29;20062;-64
2021/10/18 16:09:22;;;;;;;2.05;1.73;;;;;;;4.61;73.09;98447.22;4794624;29;20529;-62
2021/10/18 16:11:49;;;;;;;2.75;1.70;;;;;;;4.57;72.35;98451.31;4819180;29;20057;-63
2021/10/18 16:14:16;;;;;;;2.85;1.88;;;;;;;4.48;73.61;98460.53;4820753;29;20046;-64
2021/10/18 16:16:42;;;;;;;4.25;2.65;;;;;;;4.38;73.39;98461.03;4802811;29;20074;-65
2021/10/18 16:19:10;;;;;;;4.65;2.85;;;;;;;4.32;73.71;98460.09;4820166;29;20051;-64
2021/10/18 16:21:36;;;;;;;3.90;2.60;;;;;;;4.21;74.14;98463.47;4792465;29;20047;-62
2021/10/18 16:24:04;;;;;;;3.90;2.40;;;;;;;4.22;74.60;98470.28;4803243;29;20137;-64
2021/10/18 16:26:31;;;;;;;3.00;2.10;;;;;;;4.10;73.61;98454.47;4803079;29;20504;-62
2021/10/18 16:28:57;;;;;;;3.13;1.77;;;;;;;4.13;74.38;98463.75;4792415;29;20061;-64
2021/10/18 16:31:23;;;;;;;3.60;1.88;;;;;;;4.12;73.69;98469.19;4807305;29;20042;-62
2021/10/18 16:33:49;;;;;;;4.28;1.60;;;;;;;4.04;73.72;98473.72;4823402;29;20057;-62
2021/10/18 16:36:16;;;;;;;2.92;1.60;;;;;;;4.01;73.88;98475.97;4792597;29;20509;-65
2021/10/18 16:38:42;;;;;;;2.08;1.58;;;;;;;4.01;73.62;98463.66;4792087;29;20512;-63
2021/10/18 16:41:08;;;;;;;3.03;1.70;;;;;;;3.96;73.75;98473.19;4791340;29;20058;-63
2021/10/18 16:43:35;;;;;;;3.15;1.58;;;;;;;3.96;73.37;98476.63;4807637;29;20145;-63
2021/10/18 16:46:00;;;;;;;3.67;1.40;;;;;;;3.91;74.11;98478.28;4807090;29;20054;-64
2021/10/18 16:48:26;;;;;;;2.15;1.63;;;;;;;3.85;74.60;98470.28;4823060;29;20129;-62
2021/10/18 16:50:52;;;;;;;3.30;1.40;;;;;;;3.87;73.79;98476.09;4823587;29;20141;-62
2021/10/18 16:53:18;;;;;;;3.47;1.85;;;;;;;3.90;74.50;98472.25;4822649;29;20050;-64
2021/10/18 16:55:44;;;;;;;2.67;1.92;;;;;;;3.87;74.62;98470.03;4823719;29;20126;-60
2021/10/18 16:58:10;;;;;;;2.47;1.60;;;;;;;3.77;74.43;98460.06;4823715;29;20137;-62
2021/10/18 17:00:36;;;;;;;2.58;1.60;;;;;;;3.79;74.40;98470.31;4823091;29;20137;-63
2021/10/18 17:03:01;;;;;;;2.88;1.58;;;;;;;3.78;73.75;98469.53;4806939;29;20409;-64
2021/10/18 17:05:27;;;;;;;1.48;1.38;;;;;;;3.73;73.81;98466.75;4807419;29;20093;-61
2021/10/18 17:07:53;;;;;;;3.25;1.63;;;;;;;3.74;74.05;98459.69;4823775;29;20042;-65
2021/10/18 17:10:21;;;;;;;2.55;1.63;;;;;;;3.71;73.93;98465.38;4823725;29;20066;-64
2021/10/18 17:12:47;;;;;;;2.88;1.73;;;;;;;3.66;74.86;98466.00;4823518;29;20107;-64
2021/10/18 17:15:13;;;;;;;4.25;1.88;;;;;;;3.66;74.40;98466.00;4807370;29;20054;-63
2021/10/18 17:17:38;;;;;;;2.95;1.90;;;;;;;3.63;75.13;98463.81;4822973;29;20078;-65
2021/10/18 17:20:06;;;;;;;2.25;1.60;;;;;;;3.65;74.81;98469.66;4807310;29;20429;-63
2021/10/18 17:22:33;;;;;;;2.60;1.80;;;;;;;3.62;73.94;98472.69;4807039;29;20147;-63
2021/10/18 17:24:59;;;;;;;2.20;1.67;;;;;;;3.56;74.16;98465.66;4823113;29;20081;-63
2021/10/18 17:27:25;;;;;;;4.05;1.90;;;;;;;3.53;74.44;98472.16;4807243;29;20053;-65
2021/10/18 17:29:51;;;;;;;1.92;1.70;;;;;;;3.54;74.30;98472.97;4806917;29;20433;-63
2021/10/18 17:32:17;;;;;;;2.10;1.60;;;;;;;3.56;74.17;98470.91;4806700;29;20053;-64
2021/10/18 17:34:45;;;;;;;1.52;1.30;;;;;;;3.57;74.33;98480.41;4823358;29;20382;-66
2021/10/18 17:37:11;;;;;;;1.45;1.20;;;;;;;3.56;74.53;98476.16;4823332;29;20042;-63
2021/10/18 17:39:38;;;;;;;1.55;1.10;;;;;;;3.52;74.56;98478.41;4823351;29;20195;-62
2021/10/18 17:42:04;;;;;;;1.63;1.50;;;;;;;3.49;74.65;98472.78;4815017;29;20535;-63
2021/10/18 17:44:30;;;;;;;2.45;1.55;;;;;;;3.49;74.23;98475.41;4811576;29;20054;-62
2021/10/18 17:46:56;;;;;;;2.60;1.63;;;;;;;3.44;74.60;98478.66;4797478;29;20054;-61
2021/10/18 17:49:22;;;;;;;2.40;1.90;;;;;;;3.35;75.56;98470.28;4805123;29;20097;-62
2021/10/18 17:51:48;;;;;;;3.20;2.03;;;;;;;3.36;75.53;98478.94;4807008;29;20517;-63
2021/10/18 17:54:14;;;;;;;7.10;1.73;;;;;;;3.31;75.43;98468.28;4795547;29;20082;-62
2021/10/18 17:56:40;;;;;;;5.63;1.98;;;;;;;3.35;75.38;98482.56;4796633;29;20527;-63
2021/10/18 17:59:09;;;;;;;3.67;1.80;;;;;;;3.38;76.15;98482.13;4784617;29;20061;-62
2021/10/18 18:01:35;;;;;;;3.30;2.22;;;;;;;3.53;75.72;98479.19;4810633;29;20046;-63
2021/10/18 18:04:03;;;;;;;2.65;2.17;;;;;;;3.62;75.56;98478.75;4783221;29;20087;-61
2021/10/18 18:06:34;;;;;;;4.68;2.65;;;;;;;3.67;75.08;98475.47;4813141;29;20505;-63
2021/10/18 18:09:04;;;;;;;2.47;2.10;;;;;;;3.63;75.03;98469.84;4809307;29;20047;-63
2021/10/18 18:11:30;;;;;;;4.00;2.42;;;;;;;3.71;75.16;98474.03;4818391;29;20421;-64